Terminal Aerodrome Forecast
Issued by NWS Sioux Falls, SD

Home | Current Version | Previous Version | Graphics & Text | Print | Product List | Glossary On
Versions: 1 2 3 4 5 6 7 8 9 10 11 12 13 14 15 16
000
FTUS43 KFSD 222336
TAFHON
TAF
KHON 222336Z 2300/2324 12009KT P6SM SCT250
     FM230500 10006KT P6SM VCSH BKN100
     FM230700 12006KT P6SM VCTS BKN070CB
     FM230900 12007KT P6SM VCSH BKN080
     FM231100 12007KT P6SM BKN080
     FM231700 15012G19KT P6SM SCT090=

USA.gov is the U.S. government's official web portal to all federal, state and local government web resources and services.